createdAt,value
2022-11-28T00:01:48.184Z,3.10
2022-11-28T00:05:49.911Z,3.00
2022-11-28T00:09:53.013Z,3.42
2022-11-28T00:17:56.445Z,2.70
2022-11-28T00:21:58.014Z,2.92
2022-11-28T00:26:01.217Z,3.22
2022-11-28T00:30:02.964Z,3.10
2022-11-28T00:34:04.703Z,2.95
2022-11-28T00:38:06.292Z,3.15
2022-11-28T00:42:07.842Z,3.35
2022-11-28T00:46:11.104Z,3.35
2022-11-28T00:50:12.728Z,3.00
2022-11-28T00:54:14.317Z,3.58
2022-11-28T00:58:15.974Z,3.65
2022-11-28T01:02:17.613Z,3.50
2022-11-28T01:06:28.769Z,3.30
2022-11-28T01:10:30.490Z,3.13
2022-11-28T01:14:32.233Z,3.72
2022-11-28T01:18:34.446Z,3.00
2022-11-28T01:22:36.067Z,3.40
2022-11-28T01:26:38.987Z,3.63
2022-11-28T01:34:42.446Z,3.50
2022-11-28T01:38:44.986Z,3.40
2022-11-28T01:42:46.589Z,3.10
2022-11-28T01:46:48.305Z,3.20
2022-11-28T01:50:52.429Z,3.20
2022-11-28T01:54:58.089Z,3.85
2022-11-28T01:59:04.530Z,3.03
2022-11-28T02:03:12.447Z,2.90
2022-11-28T02:07:14.385Z,3.22
2022-11-28T02:11:22.086Z,3.78
2022-11-28T02:15:35.810Z,3.35
2022-11-28T02:19:57.984Z,2.58
2022-11-28T02:24:39.873Z,3.50
2022-11-28T02:28:44.557Z,3.60
2022-11-28T02:33:13.378Z,3.33
2022-11-28T02:37:30.078Z,3.47
2022-11-28T02:41:42.606Z,4.38
2022-11-28T02:45:59.411Z,4.32
2022-11-28T02:50:16.429Z,4.45
2022-11-28T02:54:18.610Z,4.05
2022-11-28T02:58:20.169Z,4.40
2022-11-28T03:02:30.392Z,4.65
2022-11-28T03:06:53.274Z,4.47
2022-11-28T03:11:15.505Z,4.70
2022-11-28T03:15:22.396Z,5.10
2022-11-28T03:19:33.314Z,4.30
2022-11-28T03:23:48.987Z,5.30
2022-11-28T03:28:02.814Z,4.15
2022-11-28T03:32:10.087Z,4.45
2022-11-28T03:36:17.008Z,5.57
2022-11-28T03:40:25.596Z,4.70
2022-11-28T03:44:30.002Z,3.97
2022-11-28T03:48:35.661Z,4.80
2022-11-28T03:52:43.395Z,4.03
2022-11-28T03:56:57.365Z,4.18
2022-11-28T04:01:24.483Z,4.75
2022-11-28T04:05:31.614Z,4.65
2022-11-28T04:09:53.850Z,4.63
2022-11-28T04:14:07.159Z,4.25
2022-11-28T04:18:32.665Z,5.28
2022-11-28T04:22:43.975Z,4.97
2022-11-28T04:26:49.223Z,4.22
2022-11-28T04:30:53.042Z,5.03
2022-11-28T04:34:59.995Z,5.03
2022-11-28T04:39:03.637Z,5.53
2022-11-28T04:43:15.165Z,5.20
2022-11-28T04:47:17.235Z,5.47
2022-11-28T04:51:24.941Z,5.10
2022-11-28T04:55:36.203Z,5.38
2022-11-28T04:59:39.660Z,5.15
2022-11-28T05:03:42.939Z,4.85
2022-11-28T05:07:44.822Z,5.15
2022-11-28T05:11:46.378Z,5.60
2022-11-28T05:15:47.974Z,4.75
2022-11-28T05:19:49.714Z,5.03
2022-11-28T05:23:51.253Z,4.95
2022-11-28T05:27:53.144Z,4.95
2022-11-28T05:31:54.796Z,5.32
2022-11-28T05:35:57.269Z,5.22
2022-11-28T05:39:58.883Z,3.72
2022-11-28T05:44:01.157Z,4.82
2022-11-28T05:48:02.715Z,5.32
2022-11-28T05:52:04.402Z,5.15
2022-11-28T05:56:11.577Z,4.80
2022-11-28T06:00:14.482Z,4.55
2022-11-28T06:04:16.455Z,4.38
2022-11-28T06:08:18.058Z,4.35
2022-11-28T06:12:19.807Z,4.85
2022-11-28T06:16:24.181Z,5.00
2022-11-28T06:20:25.811Z,4.40
2022-11-28T06:24:27.595Z,4.57
2022-11-28T06:28:29.182Z,4.00
2022-11-28T06:32:30.774Z,4.38
2022-11-28T06:36:32.407Z,4.20
2022-11-28T06:40:33.942Z,3.97
2022-11-28T06:44:35.707Z,4.53
2022-11-28T06:48:37.347Z,3.75
2022-11-28T06:52:38.945Z,4.68
2022-11-28T06:56:41.615Z,4.82
2022-11-28T07:00:43.268Z,4.68
2022-11-28T07:04:44.945Z,3.72
2022-11-28T07:08:47.052Z,4.43
2022-11-28T07:13:00.203Z,4.20
2022-11-28T07:17:04.146Z,4.60
2022-11-28T07:21:05.846Z,3.92
2022-11-28T07:25:08.041Z,4.78
2022-11-28T07:29:15.661Z,5.10
2022-11-28T07:33:17.217Z,4.72
2022-11-28T07:37:18.928Z,5.75
2022-11-28T07:41:26.219Z,5.97
2022-11-28T07:45:47.130Z,6.47
2022-11-28T07:49:51.561Z,5.97
2022-11-28T07:53:53.315Z,5.45
2022-11-28T07:57:54.898Z,6.35
2022-11-28T08:01:56.710Z,7.35
2022-11-28T08:06:02.939Z,6.90
2022-11-28T08:10:07.306Z,6.38
2022-11-28T08:14:09.487Z,6.57
2022-11-28T08:18:11.124Z,6.30
2022-11-28T08:22:12.694Z,6.85
2022-11-28T08:26:16.608Z,6.75
2022-11-28T08:30:18.191Z,6.72
2022-11-28T08:34:19.880Z,7.07
2022-11-28T08:38:21.525Z,7.60
2022-11-28T08:42:23.477Z,7.45
2022-11-28T08:46:25.325Z,7.00
2022-11-28T08:50:26.914Z,7.15
2022-11-28T08:54:28.473Z,6.78
2022-11-28T08:58:29.999Z,7.43
2022-11-28T09:02:31.613Z,6.95
2022-11-28T09:06:33.263Z,6.95
2022-11-28T09:10:39.563Z,7.28
2022-11-28T09:14:41.184Z,7.57
2022-11-28T09:18:43.253Z,8.52
2022-11-28T09:22:44.900Z,7.13
2022-11-28T09:26:46.731Z,7.45
2022-11-28T09:30:48.504Z,7.25
2022-11-28T09:34:51.240Z,7.80
2022-11-28T09:38:52.885Z,8.02
2022-11-28T09:42:54.654Z,8.10
2022-11-28T09:47:00.385Z,7.43
2022-11-28T09:51:27.239Z,7.53
2022-11-28T09:55:42.058Z,8.10
2022-11-28T09:59:44.264Z,7.57
2022-11-28T10:03:53.215Z,8.32
2022-11-28T10:08:10.074Z,8.70
2022-11-28T10:12:38.987Z,9.00
2022-11-28T10:17:20.699Z,8.73
2022-11-28T10:21:29.463Z,7.63
2022-11-28T10:25:39.511Z,8.77
2022-11-28T10:29:51.615Z,8.38
2022-11-28T10:34:17.910Z,7.73
2022-11-28T10:38:25.644Z,8.93
2022-11-28T10:42:31.543Z,8.18
2022-11-28T10:46:51.555Z,10.10
2022-11-28T10:51:07.503Z,8.50
2022-11-28T10:55:21.045Z,8.52
2022-11-28T10:59:31.572Z,8.10
2022-11-28T11:03:38.375Z,8.02
2022-11-28T11:07:45.939Z,8.13
2022-11-28T11:11:57.761Z,7.38
2022-11-28T11:16:01.053Z,7.07
2022-11-28T11:20:18.685Z,7.72
2022-11-28T11:24:20.529Z,7.07
2022-11-28T11:50:57.824Z,6.72
2022-11-28T11:55:13.293Z,8.35
2022-11-28T12:00:14.942Z,6.40
2022-11-28T12:09:24.491Z,7.47
2022-11-28T12:13:27.439Z,6.85
2022-11-28T12:22:33.728Z,7.30
2022-11-28T12:32:14.977Z,6.63
2022-11-28T12:37:16.057Z,7.32
2022-11-28T12:41:52.056Z,7.88
2022-11-28T13:28:53.826Z,7.70
2022-11-28T13:33:13.558Z,8.50
2022-11-28T13:42:43.978Z,9.43
2022-11-28T13:46:34.129Z,8.98
2022-11-28T13:54:43.116Z,8.25
2022-11-28T13:58:58.246Z,9.30
2022-11-28T14:03:01.446Z,9.20
2022-11-28T14:07:06.576Z,9.13
2022-11-28T14:11:36.708Z,9.77
2022-11-28T14:16:04.907Z,9.63
2022-11-28T14:20:31.084Z,9.40
2022-11-28T14:24:54.404Z,8.65
2022-11-28T14:28:57.593Z,9.02
2022-11-28T14:33:25.383Z,8.43
2022-11-28T14:37:28.678Z,8.20
2022-11-28T14:41:30.754Z,8.07
2022-11-28T14:45:33.215Z,8.95
2022-11-28T14:49:36.807Z,9.77
2022-11-28T14:53:47.553Z,10.20
2022-11-28T14:57:59.984Z,9.75
2022-11-28T15:02:12.306Z,9.40
2022-11-28T15:06:28.735Z,9.75
2022-11-28T15:10:55.142Z,10.00
2022-11-28T15:14:58.495Z,10.60
2022-11-28T15:23:35.300Z,9.95
2022-11-28T15:27:36.967Z,10.18
2022-11-28T15:31:38.751Z,10.73
2022-11-28T15:36:15.299Z,12.43
2022-11-28T15:40:21.263Z,9.85
2022-11-28T15:44:23.586Z,10.00
2022-11-28T15:48:39.805Z,9.87
2022-11-28T15:53:16.251Z,11.52
2022-11-28T15:57:28.477Z,10.43
2022-11-28T16:01:31.581Z,10.30
2022-11-28T16:09:35.686Z,13.82
2022-11-28T16:13:39.409Z,16.10
2022-11-28T16:17:41.095Z,21.10
2022-11-28T16:21:52.492Z,12.93
2022-11-28T16:26:22.249Z,11.02
2022-11-28T16:30:31.985Z,12.43
2022-11-28T16:34:54.689Z,11.55
2022-11-28T16:39:15.865Z,10.98
2022-11-28T16:43:39.199Z,11.35
2022-11-28T16:51:42.483Z,11.48
2022-11-28T16:55:44.728Z,11.40
2022-11-28T16:59:47.536Z,11.03
2022-11-28T17:07:55.838Z,10.30
2022-11-28T17:12:03.737Z,11.70
2022-11-28T17:16:06.389Z,11.07
2022-11-28T17:20:08.933Z,11.57
2022-11-28T17:24:16.667Z,10.73
2022-11-28T17:28:22.321Z,10.60
2022-11-28T17:32:25.049Z,10.70
2022-11-28T17:36:26.704Z,10.45
2022-11-28T17:40:34.614Z,11.60
2022-11-28T17:44:37.663Z,11.82
2022-11-28T17:48:39.806Z,11.98
2022-11-28T17:52:41.618Z,11.55
2022-11-28T17:56:51.211Z,12.43
2022-11-28T18:01:00.001Z,12.25
2022-11-28T18:05:02.315Z,12.73
2022-11-28T18:09:11.452Z,13.35
2022-11-28T18:13:16.405Z,12.80
2022-11-28T18:17:18.310Z,11.98
2022-11-28T18:21:20.460Z,11.23
2022-11-28T18:25:24.003Z,11.25
2022-11-28T18:33:28.360Z,11.18
2022-11-28T18:37:30.789Z,12.25
2022-11-28T18:41:34.825Z,12.52
2022-11-28T18:45:38.205Z,13.75
2022-11-28T18:49:40.408Z,13.85
2022-11-28T18:53:44.081Z,12.48
2022-11-28T18:57:47.312Z,26.58
2022-11-28T19:01:49.220Z,17.20
2022-11-28T19:05:51.060Z,10.55
2022-11-28T19:09:52.854Z,12.65
2022-11-28T19:13:56.159Z,12.05
2022-11-28T19:17:57.882Z,11.32
2022-11-28T19:21:59.661Z,13.63
2022-11-28T19:26:06.708Z,11.18
2022-11-28T19:30:09.023Z,10.30
2022-11-28T19:34:13.590Z,7.37
2022-11-28T19:38:15.476Z,9.95
2022-11-28T19:42:17.135Z,11.38
2022-11-28T19:46:19.261Z,10.60
2022-11-28T19:50:20.962Z,11.73
2022-11-28T19:54:23.869Z,12.60
2022-11-28T19:58:29.297Z,12.25
2022-11-28T20:02:31.163Z,10.57
2022-11-28T20:06:33.348Z,11.57
2022-11-28T20:10:36.918Z,12.07
2022-11-28T20:14:38.586Z,12.23
2022-11-28T20:18:42.959Z,12.05
2022-11-28T20:22:45.115Z,12.82
2022-11-28T20:26:47.921Z,11.88
2022-11-28T20:30:49.614Z,12.63
2022-11-28T20:34:51.842Z,11.00
2022-11-28T20:38:54.624Z,11.30
2022-11-28T20:42:56.296Z,12.35
2022-11-28T20:46:58.162Z,11.90
2022-11-28T20:50:59.748Z,11.75
2022-11-28T20:55:01.405Z,12.40
2022-11-28T20:59:04.043Z,12.98
2022-11-28T21:03:05.635Z,12.27
2022-11-28T21:07:07.173Z,12.02
2022-11-28T21:11:43.502Z,13.23
2022-11-28T21:15:45.657Z,11.52
2022-11-28T21:19:47.347Z,11.35
2022-11-28T21:23:49.415Z,11.05
2022-11-28T21:27:51.022Z,11.15
2022-11-28T21:31:53.619Z,11.02
2022-11-28T21:35:55.332Z,11.63
2022-11-28T21:39:56.979Z,11.48
2022-11-28T21:44:00.081Z,10.80
2022-11-28T21:48:02.741Z,11.15
2022-11-28T21:52:06.177Z,12.13
2022-11-28T21:56:07.933Z,11.23
2022-11-28T22:00:31.339Z,10.85
2022-11-28T22:04:34.605Z,10.60
2022-11-28T22:08:36.296Z,11.65
2022-11-28T22:12:37.873Z,11.23
2022-11-28T22:16:39.531Z,11.57
2022-11-28T22:20:43.102Z,11.57
2022-11-28T22:24:46.514Z,11.35
2022-11-28T22:28:53.554Z,11.40
2022-11-28T22:32:57.651Z,10.43
2022-11-28T22:36:59.316Z,10.98
2022-11-28T22:41:09.225Z,10.43
2022-11-28T22:45:11.105Z,11.95
2022-11-28T22:49:13.043Z,11.27
2022-11-28T22:53:15.253Z,11.27
2022-11-28T22:57:17.157Z,10.27
2022-11-28T23:01:27.329Z,11.23
2022-11-28T23:05:30.128Z,11.43
2022-11-28T23:09:32.413Z,11.23
2022-11-28T23:13:35.603Z,11.75
2022-11-28T23:17:37.822Z,11.63
2022-11-28T23:21:41.671Z,11.85
2022-11-28T23:25:43.783Z,12.13
2022-11-28T23:29:45.964Z,11.47
2022-11-28T23:33:48.733Z,11.37
2022-11-28T23:37:50.331Z,11.18
2022-11-28T23:41:52.128Z,11.13
2022-11-28T23:45:53.810Z,12.20
2022-11-28T23:49:55.397Z,12.30
2022-11-28T23:53:57.223Z,12.10
2022-11-28T23:57:58.759Z,11.00
